sensor_id;sensor_type;location;lat;lon;timestamp;pressure;altitude;pressure_sealevel;temperature;humidity
54503;BME280;40411;50.090;21.954;2023-09-19T00:00:22;37218.22;;;19.20;100.00
54503;BME280;40411;50.090;21.954;2023-09-19T00:03:09;37602.59;;;19.17;100.00
54503;BME280;40411;50.090;21.954;2023-09-19T00:05:38;38818.97;;;18.89;100.00
54503;BME280;40411;50.090;21.954;2023-09-19T00:08:04;41617.81;;;17.84;100.00
54503;BME280;40411;50.090;21.954;2023-09-19T00:10:32;39604.41;;;18.30;100.00
54503;BME280;40411;50.090;21.954;2023-09-19T00:13:02;38465.44;;;18.59;100.00
54503;BME280;40411;50.090;21.954;2023-09-19T00:15:38;38777.47;;;18.62;100.00
54503;BME280;40411;50.090;21.954;2023-09-19T00:18:05;38621.56;;;18.65;100.00
54503;BME280;40411;50.090;21.954;2023-09-19T00:20:37;38122.44;;;18.81;100.00
54503;BME280;40411;50.090;21.954;2023-09-19T00:23:04;38327.72;;;18.81;100.00
54503;BME280;40411;50.090;21.954;2023-09-19T00:25:37;39250.00;;;18.62;100.00
54503;BME280;40411;50.090;21.954;2023-09-19T00:28:04;39591.75;;;18.58;100.00
54503;BME280;40411;50.090;21.954;2023-09-19T00:30:31;39625.91;;;18.58;100.00
54503;BME280;40411;50.090;21.954;2023-09-19T00:32:58;41096.03;;;18.15;100.00
54503;BME280;40411;50.090;21.954;2023-09-19T00:35:24;41497.50;;;18.00;100.00
54503;BME280;40411;50.090;21.954;2023-09-19T00:37:51;40888.34;;;18.22;100.00
54503;BME280;40411;50.090;21.954;2023-09-19T00:40:17;40570.75;;;18.26;100.00
54503;BME280;40411;50.090;21.954;2023-09-19T00:42:45;42922.53;;;17.59;100.00
54503;BME280;40411;50.090;21.954;2023-09-19T00:45:13;41460.72;;;18.00;100.00
54503;BME280;40411;50.090;21.954;2023-09-19T00:47:41;40832.91;;;18.18;100.00
54503;BME280;40411;50.090;21.954;2023-09-19T00:50:08;41754.78;;;17.81;100.00
54503;BME280;40411;50.090;21.954;2023-09-19T00:52:37;41393.47;;;17.86;100.00
54503;BME280;40411;50.090;21.954;2023-09-19T00:55:07;41843.00;;;17.76;100.00
54503;BME280;40411;50.090;21.954;2023-09-19T00:57:34;41167.88;;;17.94;100.00
54503;BME280;40411;50.090;21.954;2023-09-19T01:00:02;42376.44;;;17.66;100.00
54503;BME280;40411;50.090;21.954;2023-09-19T01:02:33;41032.38;;;18.11;100.00
54503;BME280;40411;50.090;21.954;2023-09-19T01:04:59;41637.72;;;18.05;100.00
54503;BME280;40411;50.090;21.954;2023-09-19T01:07:31;42559.47;;;17.65;100.00
54503;BME280;40411;50.090;21.954;2023-09-19T01:09:59;41751.50;;;17.99;100.00
54503;BME280;40411;50.090;21.954;2023-09-19T01:15:38;43070.31;;;17.53;100.00
54503;BME280;40411;50.090;21.954;2023-09-19T01:20:40;42111.16;;;17.77;100.00
54503;BME280;40411;50.090;21.954;2023-09-19T01:26:04;44984.41;;;16.74;100.00
54503;BME280;40411;50.090;21.954;2023-09-19T01:31:24;44366.50;;;17.03;100.00
54503;BME280;40411;50.090;21.954;2023-09-19T01:34:01;43664.22;;;17.15;100.00
54503;BME280;40411;50.090;21.954;2023-09-19T01:36:32;45428.25;;;16.51;100.00
54503;BME280;40411;50.090;21.954;2023-09-19T01:39:07;44743.19;;;16.78;100.00
54503;BME280;40411;50.090;21.954;2023-09-19T01:41:51;44305.66;;;16.99;100.00
54503;BME280;40411;50.090;21.954;2023-09-19T01:44:24;44494.56;;;16.85;100.00
54503;BME280;40411;50.090;21.954;2023-09-19T01:46:54;44217.63;;;17.01;100.00
54503;BME280;40411;50.090;21.954;2023-09-19T01:49:28;43916.72;;;17.05;100.00
54503;BME280;40411;50.090;21.954;2023-09-19T01:52:12;43245.13;;;17.16;100.00
54503;BME280;40411;50.090;21.954;2023-09-19T01:54:50;40864.06;;;17.80;100.00
54503;BME280;40411;50.090;21.954;2023-09-19T01:57:33;40394.19;;;17.92;100.00
54503;BME280;40411;50.090;21.954;2023-09-19T02:00:09;39538.78;;;18.15;100.00
54503;BME280;40411;50.090;21.954;2023-09-19T02:02:43;39725.19;;;18.15;100.00
54503;BME280;40411;50.090;21.954;2023-09-19T02:05:10;39211.03;;;18.27;100.00
54503;BME280;40411;50.090;21.954;2023-09-19T02:07:38;38363.75;;;18.48;100.00
54503;BME280;40411;50.090;21.954;2023-09-19T02:10:05;38810.34;;;18.41;100.00
54503;BME280;40411;50.090;21.954;2023-09-19T02:12:32;37997.78;;;18.51;100.00
54503;BME280;40411;50.090;21.954;2023-09-19T02:15:03;37092.00;;;18.80;100.00
54503;BME280;40411;50.090;21.954;2023-09-19T02:17:29;38349.09;;;18.54;100.00
54503;BME280;40411;50.090;21.954;2023-09-19T02:19:56;37500.09;;;18.77;100.00
54503;BME280;40411;50.090;21.954;2023-09-19T02:22:24;37323.84;;;18.89;100.00
54503;BME280;40411;50.090;21.954;2023-09-19T02:24:51;36683.47;;;19.06;100.00
54503;BME280;40411;50.090;21.954;2023-09-19T02:27:18;36121.00;;;19.23;100.00
54503;BME280;40411;50.090;21.954;2023-09-19T02:29:44;38015.31;;;18.78;100.00
54503;BME280;40411;50.090;21.954;2023-09-19T02:32:09;38225.31;;;18.69;100.00
54503;BME280;40411;50.090;21.954;2023-09-19T02:34:36;38623.06;;;18.59;100.00
54503;BME280;40411;50.090;21.954;2023-09-19T02:37:03;37971.19;;;18.70;100.00
54503;BME280;40411;50.090;21.954;2023-09-19T02:39:31;38823.47;;;18.52;100.00
54503;BME280;40411;50.090;21.954;2023-09-19T02:41:57;39139.09;;;18.45;100.00
54503;BME280;40411;50.090;21.954;2023-09-19T02:44:24;38865.81;;;18.41;100.00
54503;BME280;40411;50.090;21.954;2023-09-19T02:46:50;39522.81;;;18.19;100.00
54503;BME280;40411;50.090;21.954;2023-09-19T02:49:16;39942.38;;;18.06;100.00
54503;BME280;40411;50.090;21.954;2023-09-19T02:51:44;39429.50;;;18.24;100.00
54503;BME280;40411;50.090;21.954;2023-09-19T02:54:10;39229.84;;;18.40;100.00
54503;BME280;40411;50.090;21.954;2023-09-19T02:56:37;39808.69;;;18.18;100.00
54503;BME280;40411;50.090;21.954;2023-09-19T02:59:03;38874.19;;;18.46;100.00
54503;BME280;40411;50.090;21.954;2023-09-19T03:01:29;39005.94;;;18.39;100.00
54503;BME280;40411;50.090;21.954;2023-09-19T03:03:56;38538.66;;;18.59;100.00
54503;BME280;40411;50.090;21.954;2023-09-19T03:06:22;37904.91;;;18.73;100.00
54503;BME280;40411;50.090;21.954;2023-09-19T03:08:50;37087.41;;;18.93;100.00
54503;BME280;40411;50.090;21.954;2023-09-19T03:11:17;34954.56;;;19.40;100.00
54503;BME280;40411;50.090;21.954;2023-09-19T03:13:52;31811.16;;;20.21;100.00
54503;BME280;40411;50.090;21.954;2023-09-19T03:16:19;31161.84;;;20.64;99.46
54503;BME280;40411;50.090;21.954;2023-09-19T03:18:48;30826.28;;;20.66;100.00
54503;BME280;40411;50.090;21.954;2023-09-19T03:21:16;30174.91;;;21.07;96.58
54503;BME280;40411;50.090;21.954;2023-09-19T03:23:43;31178.13;;;20.93;96.09
54503;BME280;40411;50.090;21.954;2023-09-19T03:26:13;29194.06;;;21.63;92.50
54503;BME280;40411;50.090;21.954;2023-09-19T03:28:41;28867.03;;;21.83;90.93
54503;BME280;40411;50.090;21.954;2023-09-19T03:31:09;29209.19;;;21.93;89.26
54503;BME280;40411;50.090;21.954;2023-09-19T03:33:36;30202.25;;;21.58;90.96
54503;BME280;40411;50.090;21.954;2023-09-19T03:36:04;30856.38;;;21.21;93.46
54503;BME280;40411;50.090;21.954;2023-09-19T03:38:31;30534.38;;;21.49;91.40
54503;BME280;40411;50.090;21.954;2023-09-19T03:40:58;30539.88;;;21.59;90.35
54503;BME280;40411;50.090;21.954;2023-09-19T03:43:24;30865.84;;;21.38;92.01
54503;BME280;40411;50.090;21.954;2023-09-19T03:45:50;29202.81;;;21.80;90.25
54503;BME280;40411;50.090;21.954;2023-09-19T03:48:17;28868.09;;;21.85;91.60
54503;BME280;40411;50.090;21.954;2023-09-19T03:50:43;29184.25;;;21.45;95.92
54503;BME280;40411;50.090;21.954;2023-09-19T03:53:12;29515.81;;;21.34;97.30
54503;BME280;40411;50.090;21.954;2023-09-19T03:55:38;28835.78;;;21.22;100.00
54503;BME280;40411;50.090;21.954;2023-09-19T03:58:06;30155.78;;;20.71;100.00
54503;BME280;40411;50.090;21.954;2023-09-19T04:00:32;30146.25;;;20.53;100.00
54503;BME280;40411;50.090;21.954;2023-09-19T04:03:00;28485.53;;;20.95;100.00
54503;BME280;40411;50.090;21.954;2023-09-19T04:05:27;30807.38;;;20.31;100.00
54503;BME280;40411;50.090;21.954;2023-09-19T04:07:53;28484.25;;;20.93;100.00
54503;BME280;40411;50.090;21.954;2023-09-19T04:10:38;27149.06;;;21.15;100.00
54503;BME280;40411;50.090;21.954;2023-09-19T04:13:04;31453.13;;;19.82;100.00
54503;BME280;40411;50.090;21.954;2023-09-19T04:15:30;31119.69;;;19.87;100.00
54503;BME280;40411;50.090;21.954;2023-09-19T04:17:56;29793.25;;;20.22;100.00
54503;BME280;40411;50.090;21.954;2023-09-19T04:20:22;30788.44;;;19.96;100.00
54503;BME280;40411;50.090;21.954;2023-09-19T04:22:49;31121.09;;;19.90;100.00
54503;BME280;40411;50.090;21.954;2023-09-19T04:25:15;30784.00;;;19.88;100.00
54503;BME280;40411;50.090;21.954;2023-09-19T04:27:41;32108.06;;;19.51;100.00
54503;BME280;40411;50.090;21.954;2023-09-19T04:30:07;31111.25;;;19.72;100.00
54503;BME280;40411;50.090;21.954;2023-09-19T04:32:40;31773.91;;;19.54;100.00
54503;BME280;40411;50.090;21.954;2023-09-19T04:35:08;30451.06;;;19.94;100.00
54503;BME280;40411;50.090;21.954;2023-09-19T04:37:43;31771.06;;;19.49;100.00
54503;BME280;40411;50.090;21.954;2023-09-19T04:40:10;31445.47;;;19.68;100.00
54503;BME280;40411;50.090;21.954;2023-09-19T04:42:43;30783.44;;;19.87;100.00
54503;BME280;40411;50.090;21.954;2023-09-19T04:45:10;33100.91;;;19.24;100.00
54503;BME280;40411;50.090;21.954;2023-09-19T04:47:37;32106.91;;;19.49;100.00
54503;BME280;40411;50.090;21.954;2023-09-19T04:50:06;30785.09;;;19.90;100.00
54503;BME280;40411;50.090;21.954;2023-09-19T04:52:32;31450.56;;;19.77;100.00
54503;BME280;40411;50.090;21.954;2023-09-19T04:54:58;31783.94;;;19.72;100.00
54503;BME280;40411;50.090;21.954;2023-09-19T04:57:25;31116.03;;;19.80;100.00
54503;BME280;40411;50.090;21.954;2023-09-19T04:59:50;28797.50;;;20.47;100.00
54503;BME280;40411;50.090;21.954;2023-09-19T05:02:16;28812.44;;;20.77;100.00
54503;BME280;40411;50.090;21.954;2023-09-19T05:04:42;28816.38;;;20.84;100.00
54503;BME280;40411;50.090;21.954;2023-09-19T05:07:08;27819.00;;;21.09;100.00
54503;BME280;40411;50.090;21.954;2023-09-19T05:09:33;29143.97;;;20.67;100.00
54503;BME280;40411;50.090;21.954;2023-09-19T05:12:00;29474.06;;;20.55;100.00
54503;BME280;40411;50.090;21.954;2023-09-19T05:14:26;29143.16;;;20.65;100.00
54503;BME280;40411;50.090;21.954;2023-09-19T05:16:52;29482.09;;;20.70;100.00
54503;BME280;40411;50.090;21.954;2023-09-19T05:19:17;30473.38;;;20.36;100.00
54503;BME280;40411;50.090;21.954;2023-09-19T05:21:43;31136.53;;;20.18;100.00
54503;BME280;40411;50.090;21.954;2023-09-19T05:24:09;31461.63;;;19.97;100.00
54503;BME280;40411;50.090;21.954;2023-09-19T05:26:37;32785.41;;;19.59;100.00
54503;BME280;40411;50.090;21.954;2023-09-19T05:29:02;33118.72;;;19.54;100.00
54503;BME280;40411;50.090;21.954;2023-09-19T05:31:30;32786.28;;;19.61;100.00
54503;BME280;40411;50.090;21.954;2023-09-19T05:33:56;31126.41;;;19.99;100.00
54503;BME280;40411;50.090;21.954;2023-09-19T05:36:22;31131.47;;;20.08;100.00
54503;BME280;40411;50.090;21.954;2023-09-19T05:38:48;30801.78;;;20.21;100.00
54503;BME280;40411;50.090;21.954;2023-09-19T05:41:16;30132.84;;;20.28;100.00
54503;BME280;40411;50.090;21.954;2023-09-19T05:43:43;30469.81;;;20.29;100.00
54503;BME280;40411;50.090;21.954;2023-09-19T05:46:09;30139.69;;;20.41;100.00
54503;BME280;40411;50.090;21.954;2023-09-19T05:48:35;27155.53;;;21.29;98.73
54503;BME280;40411;50.090;21.954;2023-09-19T05:51:01;29159.06;;;20.96;98.94
54503;BME280;40411;50.090;21.954;2023-09-19T05:53:27;26832.69;;;21.57;97.10
54503;BME280;40411;50.090;21.954;2023-09-19T05:55:54;26506.38;;;21.79;94.52
54503;BME280;40411;50.090;21.954;2023-09-19T05:58:20;26837.59;;;21.68;95.31
54503;BME280;40411;50.090;21.954;2023-09-19T06:00:46;27172.22;;;21.63;95.48
54503;BME280;40411;50.090;21.954;2023-09-19T06:03:13;28160.00;;;21.17;98.91
54503;BME280;40411;50.090;21.954;2023-09-19T06:05:40;27827.41;;;21.26;98.42
54503;BME280;40411;50.090;21.954;2023-09-19T06:08:07;27497.25;;;21.39;97.36
54503;BME280;40411;50.090;21.954;2023-09-19T06:10:34;28164.88;;;21.27;97.10
54503;BME280;40411;50.090;21.954;2023-09-19T06:13:02;29826.22;;;20.84;99.30
54503;BME280;40411;50.090;21.954;2023-09-19T06:15:30;29157.22;;;20.92;100.00
54503;BME280;40411;50.090;21.954;2023-09-19T06:17:58;29158.25;;;20.94;99.86
54503;BME280;40411;50.090;21.954;2023-09-19T06:20:26;29826.75;;;20.85;99.31
54503;BME280;40411;50.090;21.954;2023-09-19T06:22:53;27499.50;;;21.44;97.32
54503;BME280;40411;50.090;21.954;2023-09-19T06:25:19;26839.56;;;21.72;95.43
54503;BME280;40411;50.090;21.954;2023-09-19T06:27:46;27826.13;;;21.23;99.39
54503;BME280;40411;50.090;21.954;2023-09-19T06:30:12;30475.31;;;20.39;100.00
54503;BME280;40411;50.090;21.954;2023-09-19T06:32:40;30809.59;;;20.35;100.00
54503;BME280;40411;50.090;21.954;2023-09-19T06:35:14;29149.25;;;20.77;100.00
54503;BME280;40411;50.090;21.954;2023-09-19T06:37:42;29155.88;;;20.90;99.76
54503;BME280;40411;50.090;21.954;2023-09-19T06:40:12;28823.19;;;20.97;99.66
54503;BME280;40411;50.090;21.954;2023-09-19T06:42:43;29157.72;;;20.93;99.87
54503;BME280;40411;50.090;21.954;2023-09-19T06:45:14;28162.31;;;21.22;98.86
54503;BME280;40411;50.090;21.954;2023-09-19T06:47:49;29159.84;;;20.97;98.89
54503;BME280;40411;50.090;21.954;2023-09-19T06:50:16;27494.97;;;21.34;98.28
54503;BME280;40411;50.090;21.954;2023-09-19T06:52:44;28165.91;;;21.29;97.05
54503;BME280;40411;50.090;21.954;2023-09-19T06:55:11;28491.75;;;21.08;98.77
54503;BME280;40411;50.090;21.954;2023-09-19T06:57:39;26836.38;;;21.65;96.38
54503;BME280;40411;50.090;21.954;2023-09-19T07:00:13;27504.03;;;21.53;95.56
54503;BME280;40411;50.090;21.954;2023-09-19T07:03:01;26504.19;;;21.75;95.47
54503;BME280;40411;50.090;21.954;2023-09-19T07:05:30;27506.06;;;21.57;95.77
54503;BME280;40411;50.090;21.954;2023-09-19T07:07:57;27835.78;;;21.42;95.53
54503;BME280;40411;50.090;21.954;2023-09-19T07:10:25;27831.19;;;21.33;96.83
54503;BME280;40411;50.090;21.954;2023-09-19T07:12:58;26169.53;;;21.79;96.52
54503;BME280;40411;50.090;21.954;2023-09-19T07:15:25;26506.88;;;21.80;95.04
54503;BME280;40411;50.090;21.954;2023-09-19T07:17:54;27172.22;;;21.63;94.54
54503;BME280;40411;50.090;21.954;2023-09-19T07:20:22;27831.72;;;21.34;96.89
54503;BME280;40411;50.090;21.954;2023-09-19T07:22:49;26174.34;;;21.90;93.69
54503;BME280;40411;50.090;21.954;2023-09-19T07:25:16;26179.16;;;22.00;92.67
54503;BME280;40411;50.090;21.954;2023-09-19T07:27:42;25513.31;;;22.17;92.32
54503;BME280;40411;50.090;21.954;2023-09-19T07:30:10;24510.72;;;22.36;92.90
54503;BME280;40411;50.090;21.954;2023-09-19T07:32:37;26843.50;;;21.80;94.10
54503;BME280;40411;50.090;21.954;2023-09-19T07:35:05;27506.06;;;21.57;95.48
54503;BME280;40411;50.090;21.954;2023-09-19T07:37:31;25841.50;;;21.98;93.80
54503;BME280;40411;50.090;21.954;2023-09-19T07:40:07;25184.06;;;22.34;91.22
54503;BME280;40411;50.090;21.954;2023-09-19T07:42:36;24188.13;;;22.68;89.46
54503;BME280;40411;50.090;21.954;2023-09-19T07:45:07;25181.50;;;22.28;92.82
54503;BME280;40411;50.090;21.954;2023-09-19T07:47:33;23516.97;;;22.75;90.15
54503;BME280;40411;50.090;21.954;2023-09-19T07:50:00;28180.06;;;21.57;93.08
54503;BME280;40411;50.090;21.954;2023-09-19T07:52:28;28173.63;;;21.45;95.35
54503;BME280;40411;50.090;21.954;2023-09-19T07:54:55;27170.22;;;21.59;95.59
54503;BME280;40411;50.090;21.954;2023-09-19T07:57:22;29828.91;;;20.89;98.58
54503;BME280;40411;50.090;21.954;2023-09-19T07:59:48;27180.44;;;21.80;93.56
54503;BME280;40411;50.090;21.954;2023-09-19T08:02:14;27179.19;;;21.77;93.90
54503;BME280;40411;50.090;21.954;2023-09-19T08:04:44;27180.19;;;21.79;93.67
54503;BME280;40411;50.090;21.954;2023-09-19T08:07:14;27511.34;;;21.68;94.10
54503;BME280;40411;50.090;21.954;2023-09-19T08:09:42;28506.84;;;21.37;95.49
54503;BME280;40411;50.090;21.954;2023-09-19T08:12:11;27507.56;;;21.60;95.38
54503;BME280;40411;50.090;21.954;2023-09-19T08:14:38;29168.34;;;21.14;97.13
54503;BME280;40411;50.090;21.954;2023-09-19T08:17:03;28835.78;;;21.22;97.71
54503;BME280;40411;50.090;21.954;2023-09-19T08:19:34;28171.81;;;21.41;95.97
54503;BME280;40411;50.090;21.954;2023-09-19T08:21:59;29175.75;;;21.28;95.78
54503;BME280;40411;50.090;21.954;2023-09-19T08:24:27;28173.88;;;21.45;95.98
54503;BME280;40411;50.090;21.954;2023-09-19T08:26:57;28500.84;;;21.26;97.80
54503;BME280;40411;50.090;21.954;2023-09-19T08:29:24;28171.31;;;21.40;96.23
54503;BME280;40411;50.090;21.954;2023-09-19T08:31:54;27177.19;;;21.73;94.97
54503;BME280;40411;50.090;21.954;2023-09-19T08:34:22;27507.31;;;21.59;95.17
54503;BME280;40411;50.090;21.954;2023-09-19T08:36:50;27845.97;;;21.63;94.58
54503;BME280;40411;50.090;21.954;2023-09-19T08:39:16;27176.19;;;21.71;95.51
54503;BME280;40411;50.090;21.954;2023-09-19T08:41:44;27842.66;;;21.56;95.53
54503;BME280;40411;50.090;21.954;2023-09-19T08:44:10;26511.00;;;21.89;94.28
54503;BME280;40411;50.090;21.954;2023-09-19T08:46:37;27843.91;;;21.59;95.62
54503;BME280;40411;50.090;21.954;2023-09-19T08:49:19;27842.66;;;21.56;95.70
54503;BME280;40411;50.090;21.954;2023-09-19T08:52:01;28175.94;;;21.49;95.94
54503;BME280;40411;50.090;21.954;2023-09-19T08:54:35;27841.63;;;21.54;95.44
54503;BME280;40411;50.090;21.954;2023-09-19T08:57:06;26849.19;;;21.92;93.65
54503;BME280;40411;50.090;21.954;2023-09-19T08:59:38;27848.00;;;21.67;94.35
54503;BME280;40411;50.090;21.954;2023-09-19T09:02:11;27184.16;;;21.88;93.09
54503;BME280;40411;50.090;21.954;2023-09-19T09:04:41;28179.28;;;21.56;95.06
54503;BME280;40411;50.090;21.954;2023-09-19T09:07:11;29504.03;;;21.12;96.67
54503;BME280;40411;50.090;21.954;2023-09-19T09:09:39;27178.94;;;21.77;94.24
54503;BME280;40411;50.090;21.954;2023-09-19T09:12:16;27839.09;;;21.49;96.50
54503;BME280;40411;50.090;21.954;2023-09-19T09:14:45;26842.28;;;21.77;95.30
54503;BME280;40411;50.090;21.954;2023-09-19T09:17:12;27836.81;;;21.45;96.77
54503;BME280;40411;50.090;21.954;2023-09-19T09:19:38;29491.19;;;20.87;100.00
54503;BME280;40411;50.090;21.954;2023-09-19T09:22:10;29160.38;;;20.98;99.51
54503;BME280;40411;50.090;21.954;2023-09-19T09:24:51;30812.94;;;20.41;100.00
54503;BME280;40411;50.090;21.954;2023-09-19T09:27:19;32135.22;;;19.99;100.00
54503;BME280;40411;50.090;21.954;2023-09-19T09:29:49;30807.91;;;20.32;100.00
54503;BME280;40411;50.090;21.954;2023-09-19T09:32:25;27824.59;;;21.20;100.00
54503;BME280;40411;50.090;21.954;2023-09-19T09:35:06;29821.09;;;20.74;100.00
54503;BME280;40411;50.090;21.954;2023-09-19T09:37:35;28489.94;;;21.04;100.00
54503;BME280;40411;50.090;21.954;2023-09-19T09:40:04;28823.19;;;20.97;100.00
54503;BME280;40411;50.090;21.954;2023-09-19T09:42:42;27164.25;;;21.47;98.45
54503;BME280;40411;50.090;21.954;2023-09-19T09:45:20;27833.75;;;21.38;98.36
54503;BME280;40411;50.090;21.954;2023-09-19T09:48:01;31146.94;;;20.37;100.00
54503;BME280;40411;50.090;21.954;2023-09-19T09:50:46;31802.84;;;20.06;100.00
54503;BME280;40411;50.090;21.954;2023-09-19T09:53:29;28489.94;;;21.04;100.00
54503;BME280;40411;50.090;21.954;2023-09-19T09:58:49;26826.53;;;21.45;100.00
54503;BME280;40411;50.090;21.954;2023-09-19T10:01:18;28485.00;;;20.94;100.00
54503;BME280;40411;50.090;21.954;2023-09-19T10:03:44;29143.16;;;20.65;100.00
54503;BME280;40411;50.090;21.954;2023-09-19T10:06:15;30468.44;;;20.26;100.00
54503;BME280;40411;50.090;21.954;2023-09-19T10:09:01;31461.63;;;19.97;100.00
54503;BME280;40411;50.090;21.954;2023-09-19T10:11:44;31457.06;;;19.89;100.00
54503;BME280;40411;50.090;21.954;2023-09-19T10:14:16;28133.53;;;20.65;100.00
54503;BME280;40411;50.090;21.954;2023-09-19T10:16:46;31114.34;;;19.77;100.00
54503;BME280;40411;50.090;21.954;2023-09-19T10:19:23;29456.94;;;20.22;100.00
54503;BME280;40411;50.090;21.954;2023-09-19T10:21:56;30109.41;;;19.84;100.00
54503;BME280;40411;50.090;21.954;2023-09-19T10:24:25;30101.78;;;19.70;100.00
54503;BME280;40411;50.090;21.954;2023-09-19T10:26:53;29435.00;;;19.80;100.00
54503;BME280;40411;50.090;21.954;2023-09-19T10:29:21;29110.06;;;20.01;100.00
54503;BME280;40411;50.090;21.954;2023-09-19T10:31:48;32413.59;;;18.97;100.00
54503;BME280;40411;50.090;21.954;2023-09-19T10:34:17;33071.50;;;18.73;100.00
54503;BME280;40411;50.090;21.954;2023-09-19T10:36:46;33400.44;;;18.61;100.00
54503;BME280;40411;50.090;21.954;2023-09-19T10:39:16;34062.34;;;18.45;100.00
54503;BME280;40411;50.090;21.954;2023-09-19T10:41:53;31735.00;;;18.85;100.00
54503;BME280;40411;50.090;21.954;2023-09-19T10:44:24;31076.44;;;19.08;100.00
54503;BME280;40411;50.090;21.954;2023-09-19T10:46:54;28091.97;;;19.82;100.00
54503;BME280;40411;50.090;21.954;2023-09-19T10:49:21;27435.66;;;20.14;100.00
54503;BME280;40411;50.090;21.954;2023-09-19T10:51:49;27102.81;;;20.20;100.00
54503;BME280;40411;50.090;21.954;2023-09-19T10:54:21;25777.97;;;20.62;100.00
54503;BME280;40411;50.090;21.954;2023-09-19T10:56:53;26776.81;;;20.41;100.00
54503;BME280;40411;50.090;21.954;2023-09-19T10:59:21;30422.16;;;19.40;100.00
54503;BME280;40411;50.090;21.954;2023-09-19T11:01:57;26445.53;;;20.51;100.00
54503;BME280;40411;50.090;21.954;2023-09-19T11:04:36;24455.22;;;21.11;100.00
54503;BME280;40411;50.090;21.954;2023-09-19T11:07:12;25450.72;;;20.81;100.00
54503;BME280;40411;50.090;21.954;2023-09-19T11:09:52;25121.44;;;20.96;100.00
54503;BME280;40411;50.090;21.954;2023-09-19T11:14:51;24129.47;;;21.35;100.00
54503;BME280;40411;50.090;21.954;2023-09-19T11:30:35;24789.75;;;21.07;100.00
54503;BME280;40411;50.090;21.954;2023-09-19T11:33:21;23793.03;;;21.35;100.00
54503;BME280;40411;50.090;21.954;2023-09-19T11:43:46;23793.69;;;21.36;100.00
54503;BME280;40411;50.090;21.954;2023-09-19T11:46:12;23128.31;;;21.54;100.00
54503;BME280;40411;50.090;21.954;2023-09-19T11:48:47;23463.00;;;21.50;100.00
54503;BME280;40411;50.090;21.954;2023-09-19T11:51:15;26448.94;;;20.59;100.00
54503;BME280;40411;50.090;21.954;2023-09-19T11:53:46;26778.28;;;20.44;100.00
54503;BME280;40411;50.090;21.954;2023-09-19T11:56:20;25449.78;;;20.79;100.00
54503;BME280;40411;50.090;21.954;2023-09-19T11:58:49;25120.50;;;20.94;100.00
54503;BME280;40411;50.090;21.954;2023-09-19T12:01:30;24798.00;;;21.25;100.00
54503;BME280;40411;50.090;21.954;2023-09-19T12:03:59;24134.84;;;21.47;100.00
54503;BME280;40411;50.090;21.954;2023-09-19T12:06:29;25787.25;;;20.82;100.00
54503;BME280;40411;50.090;21.954;2023-09-19T12:08:55;24790.66;;;21.09;100.00
54503;BME280;40411;50.090;21.954;2023-09-19T12:11:30;28098.63;;;19.95;100.00
54503;BME280;40411;50.090;21.954;2023-09-19T12:13:59;26105.03;;;20.42;100.00
54503;BME280;40411;50.090;21.954;2023-09-19T12:16:26;26768.47;;;20.24;100.00
54503;BME280;40411;50.090;21.954;2023-09-19T12:18:56;30081.03;;;19.31;100.00
54503;BME280;40411;50.090;21.954;2023-09-19T12:21:28;26434.34;;;20.28;100.00
54503;BME280;40411;50.090;21.954;2023-09-19T12:26:30;26437.03;;;20.34;100.00
54503;BME280;40411;50.090;21.954;2023-09-19T12:29:03;24774.13;;;20.72;100.00
54503;BME280;40411;50.090;21.954;2023-09-19T12:31:31;25106.09;;;20.63;100.00
54503;BME280;40411;50.090;21.954;2023-09-19T12:34:02;25098.91;;;20.47;100.00
54503;BME280;40411;50.090;21.954;2023-09-19T12:36:28;25097.03;;;20.43;100.00
54503;BME280;40411;50.090;21.954;2023-09-19T12:38:58;24101.88;;;20.72;100.00
54503;BME280;40411;50.090;21.954;2023-09-19T12:41:34;26755.19;;;19.96;100.00
54503;BME280;40411;50.090;21.954;2023-09-19T12:44:00;23770.44;;;20.83;100.00
54503;BME280;40411;50.090;21.954;2023-09-19T12:46:25;24430.25;;;20.55;100.00
54503;BME280;40411;50.090;21.954;2023-09-19T12:49:15;25429.09;;;20.34;100.00
54503;BME280;40411;50.090;21.954;2023-09-19T12:51:43;25102.84;;;20.56;100.00
54503;BME280;40411;50.090;21.954;2023-09-19T12:54:09;25101.44;;;20.52;100.00
54503;BME280;40411;50.090;21.954;2023-09-19T12:56:41;24104.09;;;20.77;100.00
54503;BME280;40411;50.090;21.954;2023-09-19T12:59:12;24770.00;;;20.63;100.00
54503;BME280;40411;50.090;21.954;2023-09-19T13:01:40;22779.47;;;21.24;100.00
54503;BME280;40411;50.090;21.954;2023-09-19T13:04:21;23113.16;;;21.18;100.00
54503;BME280;40411;50.090;21.954;2023-09-19T13:06:55;23116.63;;;21.26;100.00
54503;BME280;40411;50.090;21.954;2023-09-19T13:09:27;26430.72;;;20.20;100.00
54503;BME280;40411;50.090;21.954;2023-09-19T13:12:04;24438.44;;;20.73;100.00
54503;BME280;40411;50.090;21.954;2023-09-19T13:14:32;24772.28;;;20.68;100.00
54503;BME280;40411;50.090;21.954;2023-09-19T13:17:04;25107.28;;;20.65;100.00
54503;BME280;40411;50.090;21.954;2023-09-19T13:19:43;23776.41;;;20.96;100.00
54503;BME280;40411;50.090;21.954;2023-09-19T13:22:42;22780.13;;;21.26;100.00
54503;BME280;40411;50.090;21.954;2023-09-19T13:25:13;23116.19;;;21.25;100.00
54503;BME280;40411;50.090;21.954;2023-09-19T13:27:41;22119.31;;;21.54;100.00
54503;BME280;40411;50.090;21.954;2023-09-19T13:30:08;22451.25;;;21.44;100.00
54503;BME280;40411;50.090;21.954;2023-09-19T13:32:34;23783.72;;;21.13;100.00
54503;BME280;40411;50.090;21.954;2023-09-19T13:35:00;22124.72;;;21.68;100.00